Flint, MI (48552)

8:59 AM EDT on September 01, 2015 (GMT -0400)
Flint Twp / Dye Elementary | | Change Station
CLOSE
Current Station
Personal Weather Station
Location: Flint, MI
Elevation: 741 ft
Nearby Weather Stations
Active Advisory: Dense Fog Advisory

Elev 741 ft 43.01 °N, 83.76 °W | Updated 9 minutes ago

Scattered Clouds
Scattered Clouds
67.3 °F
Feels Like 67.3 °F
N
0.0
Wind Variable Wind from SW

Today
High -- | Low -- °F
--% Chance of Precip.
Yesterday
High -- | Low -- °F
Precip. -- in
6:59 AM 8:09 PM
Waning Gibbous, 89% visible
Pressure 30.10 in
Visibility 3.0 miles
Clouds Scattered Clouds 3700 ft
Dew Point 66 °F
Humidity 96%
Rainfall 0.00 in
Snow Depth Not available.
UV 1 out of 12
Pollen 10.60 out of 12
Air Quality Not available.
Flu Activity Not available.
METAR KFNT 011253Z 00000KT 3SM BR MIFG SCT037 21/19 A3010 RMK AO2 SLP191 T02060189
Pressure 30.10 in
Visibility 3.0 miles
Clouds Scattered Clouds 3700 ft
Dew Point 66 °F
Humidity 96%
Rainfall 0.00 in
Snow Depth Not available.
UV 1 out of 12
Pollen 10.60 out of 12
Air Quality Not available.
Flu Activity Not available.
METAR KFNT 011253Z 00000KT 3SM BR MIFG SCT037 21/19 A3010 RMK AO2 SLP191 T02060189

10-Day Weather Forecast

×

Almanac

Astronomy

Sep. 01, 2015 Rise Set
Actual Time
Civil Twilight
Nautical Twilight
Astronomical Twilight
Moon
Length of Visible Light
Length of Day
Tomorrow will be .
, % of the Moon is Illuminated

Today's Extremes

State Highs State Lows

Community

WunderPhotos

Upload Photos

1,851,510 photos uploaded!

WunderBlogs® & News

Nearby

Air Quality

  Air Quality AQ Index Pollutant
Not available.

Snow Depth

Station Depth Elevation

Earthquake Activity

City Distance Mag. Time & Date
Minimum magnitude displayed is 2.5.

Coastal Water Temperatures

Place Temperature

Stations

Nearby Weather Stations

Station Location Temp. Windchill Dew Point Humidity Wind Precip. Elev Updated Type
                   
Dense Fog Advisory
Statement as of 8:58 AM EDT on September 01, 2015

... Dense fog advisory will expire at 9 am EDT this morning...

The dense fog advisory will expire at 9 am EDT this morning.

Hazardous weather...

* widespread dense fog is no longer expected... however patches of
   fog will continue through about 10 am.

Impacts...

* widespread dense fog is no longer expected to cause hazardous
   driving conditions... however drivers should continue to watch
   for localized fog.

Precautionary/preparedness actions...

* for more information visit http://go.USA.Gov/rr8.



Hlo